Time;durP1;ratioP1;P1;durP2;ratioP2;P2;SDS_P1;SDS_P2;PMS_P1;PMS_P2;Temp;Humidity;BMP_temperature;BMP_pressure;BME280_temperature;BME280_humidity;BME280_pressure;Samples;Min_cycle;Max_cycle;Signal;HPM_P1;HPM_P2
2022/10/10 00:02:16;;;;;;;5.80;3.17;;;9.80;69.90;;;;;;9173170;19;20022;-69
2022/10/10 00:05:19;;;;;;;9.88;3.60;;;9.70;69.90;;;;;;9169731;19;20254;-61
2022/10/10 00:08:23;;;;;;;7.18;3.83;;;9.70;69.30;;;;;;9173644;19;20031;-61
2022/10/10 00:11:29;;;;;;;5.63;3.42;;;9.70;69.30;;;;;;9172007;19;20597;-61
2022/10/10 00:14:32;;;;;;;9.15;3.47;;;9.60;69.30;;;;;;9169764;19;20022;-61
2022/10/10 00:17:36;;;;;;;6.10;3.35;;;9.60;69.40;;;;;;9172248;19;20082;-62
2022/10/10 00:20:40;;;;;;;11.48;3.58;;;9.60;69.40;;;;;;9166694;19;20070;-62
2022/10/10 00:23:43;;;;;;;8.35;3.90;;;9.60;69.50;;;;;;9166924;19;20078;-61
2022/10/10 00:26:49;;;;;;;4.70;3.28;;;9.50;69.40;;;;;;9172063;19;20713;-61
2022/10/10 00:29:53;;;;;;;6.10;3.65;;;9.50;69.50;;;;;;9170679;19;20106;-61
2022/10/10 00:32:58;;;;;;;5.68;3.78;;;9.50;69.50;;;;;;9171091;19;20015;-63
2022/10/10 00:36:02;;;;;;;9.70;3.42;;;9.40;69.50;;;;;;9170728;19;20048;-63
2022/10/10 00:39:06;;;;;;;6.70;3.22;;;9.40;69.60;;;;;;9170718;19;20094;-60
2022/10/10 00:42:14;;;;;;;5.47;3.00;;;9.40;69.60;;;;;;9172420;19;20034;-63
2022/10/10 00:45:27;;;;;;;5.43;3.22;;;9.40;69.70;;;;;;9168780;19;20022;-61
2022/10/10 00:48:34;;;;;;;7.18;3.50;;;9.30;69.80;;;;;;9171672;19;20688;-60
2022/10/10 00:51:38;;;;;;;11.88;3.65;;;9.30;69.70;;;;;;9173304;19;20463;-62
2022/10/10 00:54:42;;;;;;;6.97;3.60;;;9.30;69.80;;;;;;9167675;19;20143;-62
2022/10/10 00:57:48;;;;;;;4.25;3.30;;;9.20;69.70;;;;;;9170568;19;20026;-59
2022/10/10 01:00:52;;;;;;;6.75;3.88;;;9.20;69.70;;;;;;9170949;19;20011;-60
2022/10/10 01:03:59;;;;;;;5.82;3.65;;;9.20;69.80;;;;;;9172370;19;20018;-61
2022/10/10 01:07:06;;;;;;;5.15;3.28;;;9.20;69.90;;;;;;9169236;19;20044;-61
2022/10/10 01:10:15;;;;;;;7.40;3.85;;;9.10;69.90;;;;;;9172267;19;20030;-62
2022/10/10 01:13:31;;;;;;;6.63;3.13;;;9.10;69.90;;;;;;9168601;19;20017;-59
2022/10/10 01:16:44;;;;;;;7.15;3.85;;;9.10;70.00;;;;;;9167178;19;20097;-61
2022/10/10 01:20:18;;;;;;;6.72;3.53;;;9.10;70.00;;;;;;9170519;19;20519;-61
2022/10/10 01:23:52;;;;;;;8.23;3.38;;;9.10;70.10;;;;;;9165824;19;20090;-65
2022/10/10 01:27:11;;;;;;;10.18;3.42;;;9.00;70.10;;;;;;9167934;19;20029;-63
2022/10/10 01:30:21;;;;;;;8.07;3.53;;;9.00;70.10;;;;;;9169602;19;20405;-61
2022/10/10 01:33:32;;;;;;;5.97;3.30;;;9.00;70.10;;;;;;9169930;19;20087;-62
2022/10/10 01:36:44;;;;;;;7.10;3.42;;;8.90;70.10;;;;;;9171030;19;20471;-61
2022/10/10 01:39:55;;;;;;;7.30;3.80;;;8.90;70.10;;;;;;9168174;19;20077;-64
2022/10/10 01:43:03;;;;;;;8.77;3.70;;;8.90;70.20;;;;;;9170017;19;20037;-59
2022/10/10 01:46:13;;;;;;;5.63;3.40;;;8.80;70.10;;;;;;9169570;19;20055;-60
2022/10/10 01:49:17;;;;;;;8.68;3.83;;;8.80;70.20;;;;;;9167294;19;20033;-62
2022/10/10 01:52:31;;;;;;;8.43;3.67;;;8.80;70.20;;;;;;9169728;19;20051;-63
2022/10/10 01:55:47;;;;;;;4.67;3.23;;;8.80;70.30;;;;;;9172034;19;20020;-61
2022/10/10 01:59:04;;;;;;;5.07;3.22;;;8.70;70.30;;;;;;9176320;19;20488;-61
2022/10/10 02:02:16;;;;;;;6.03;3.50;;;8.70;70.40;;;;;;9177102;19;20010;-62
2022/10/10 02:05:26;;;;;;;10.15;3.78;;;8.70;70.30;;;;;;9175322;19;20022;-62
2022/10/10 02:08:34;;;;;;;6.85;3.65;;;8.70;70.40;;;;;;9175306;19;20043;-63
2022/10/10 02:11:40;;;;;;;5.45;3.58;;;8.60;70.30;;;;;;9173721;19;20027;-63
2022/10/10 02:14:46;;;;;;;7.88;3.47;;;8.60;70.40;;;;;;9174726;19;20018;-63
2022/10/10 02:17:54;;;;;;;5.95;3.53;;;8.60;70.40;;;;;;9176280;19;20522;-63
2022/10/10 02:20:59;;;;;;;5.07;3.72;;;8.60;70.60;;;;;;9175852;19;20014;-63
2022/10/10 02:24:06;;;;;;;6.60;3.65;;;8.60;70.50;;;;;;9170893;19;20027;-64
2022/10/10 02:27:14;;;;;;;8.52;3.72;;;8.50;70.50;;;;;;9174944;19;21622;-65
2022/10/10 02:30:19;;;;;;;4.38;3.42;;;8.50;70.50;;;;;;9175843;19;20047;-61
2022/10/10 02:33:30;;;;;;;10.70;4.03;;;8.50;70.60;;;;;;9174329;19;20487;-62
2022/10/10 02:36:33;;;;;;;7.57;3.55;;;8.40;70.60;;;;;;9176953;19;20090;-64
2022/10/10 02:39:39;;;;;;;;;;;8.40;70.60;;;;;;9177169;19;20101;-64
2022/10/10 02:42:44;;;;;;;7.68;3.42;;;8.40;70.60;;;;;;9175808;19;19930;-63
2022/10/10 02:45:48;;;;;;;5.90;3.75;;;8.40;70.50;;;;;;9174847;19;20015;-61
2022/10/10 02:48:54;;;;;;;6.47;3.63;;;8.30;70.50;;;;;;9174666;19;20475;-60
2022/10/10 02:51:58;;;;;;;6.13;3.80;;;8.40;70.70;;;;;;9175603;19;20126;-63
2022/10/10 02:55:01;;;;;;;;;;;8.30;70.70;;;;;;9172935;19;20103;-63
2022/10/10 02:58:05;;;;;;;5.93;3.13;;;8.30;70.60;;;;;;9175107;19;19919;-62
2022/10/10 03:01:09;;;;;;;6.65;3.78;;;8.30;70.50;;;;;;9174206;19;20029;-62
2022/10/10 03:04:14;;;;;;;8.02;3.92;;;8.30;70.60;;;;;;9174143;19;20029;-63
2022/10/10 03:07:18;;;;;;;5.40;3.45;;;8.30;70.70;;;;;;9171420;19;20387;-61
2022/10/10 03:10:22;;;;;;;5.45;3.72;;;8.30;70.80;;;;;;9173483;19;20026;-61
2022/10/10 03:13:26;;;;;;;7.90;3.75;;;8.20;70.80;;;;;;9173093;19;20078;-61
2022/10/10 03:16:29;;;;;;;5.57;3.75;;;8.20;70.80;;;;;;9174171;19;20031;-63
2022/10/10 03:19:35;;;;;;;5.30;3.67;;;8.20;70.90;;;;;;9173338;19;20010;-62
2022/10/10 03:22:38;;;;;;;5.78;3.72;;;8.20;70.90;;;;;;9169416;19;20025;-60
2022/10/10 03:25:43;;;;;;;8.65;3.63;;;8.20;70.90;;;;;;9173662;19;20401;-62
2022/10/10 03:28:47;;;;;;;5.78;3.95;;;8.20;70.90;;;;;;9172719;19;20018;-61
2022/10/10 03:31:50;;;;;;;6.70;3.70;;;8.20;71.00;;;;;;9175515;19;20481;-62
2022/10/10 03:34:56;;;;;;;7.88;4.20;;;8.20;71.00;;;;;;9171877;19;20166;-60
2022/10/10 03:38:00;;;;;;;6.07;3.20;;;8.20;71.10;;;;;;9174241;19;20078;-62
2022/10/10 03:41:04;;;;;;;8.77;3.92;;;8.20;71.10;;;;;;9174152;19;20538;-63
2022/10/10 03:44:08;;;;;;;6.05;3.65;;;8.10;71.10;;;;;;9177254;19;20078;-61
2022/10/10 03:47:11;;;;;;;4.65;3.38;;;8.10;71.20;;;;;;9178002;19;20098;-62
2022/10/10 03:50:17;;;;;;;5.65;2.92;;;8.10;71.20;;;;;;9178855;19;20098;-62
2022/10/10 03:53:21;;;;;;;9.07;3.58;;;8.10;71.20;;;;;;9174865;19;20018;-62
2022/10/10 03:56:25;;;;;;;6.07;3.88;;;8.10;71.30;;;;;;9178328;19;20029;-60
2022/10/10 03:59:28;;;;;;;6.80;3.13;;;8.10;71.30;;;;;;9177972;19;20015;-62
2022/10/10 04:02:32;;;;;;;9.18;3.30;;;8.10;71.40;;;;;;9179666;19;20369;-61
2022/10/10 04:05:39;;;;;;;6.03;3.53;;;8.10;71.40;;;;;;9174804;19;20034;-64
2022/10/10 04:08:43;;;;;;;5.78;2.97;;;8.10;71.40;;;;;;9178416;19;20014;-60
2022/10/10 04:11:46;;;;;;;6.88;3.63;;;8.20;71.50;;;;;;9180192;19;20022;-61
2022/10/10 04:14:50;;;;;;;7.38;3.95;;;8.20;71.50;;;;;;9174497;19;20019;-62
2022/10/10 04:17:54;;;;;;;8.48;3.72;;;8.10;71.50;;;;;;9176955;19;20014;-60
2022/10/10 04:21:02;;;;;;;8.77;4.53;;;8.10;71.50;;;;;;9176091;19;20027;-60
2022/10/10 04:24:06;;;;;;;7.20;3.80;;;8.10;71.50;;;;;;9173495;19;20336;-61
2022/10/10 04:27:10;;;;;;;8.23;3.72;;;8.10;71.50;;;;;;9178528;19;20359;-60
2022/10/10 04:30:14;;;;;;;7.13;3.63;;;8.20;71.60;;;;;;9175511;19;20479;-60
2022/10/10 04:33:18;;;;;;;4.18;3.10;;;8.20;71.70;;;;;;9176547;19;20022;-60
2022/10/10 04:36:23;;;;;;;8.82;3.95;;;8.20;71.60;;;;;;9173055;19;20394;-62
2022/10/10 04:39:27;;;;;;;12.65;3.60;;;8.10;71.60;;;;;;9177720;19;20060;-61
2022/10/10 04:42:31;;;;;;;;;;;8.20;71.70;;;;;;9177425;19;20386;-60
2022/10/10 04:45:34;;;;;;;7.93;3.17;;;8.20;71.70;;;;;;9175918;19;19922;-67
2022/10/10 04:48:40;;;;;;;10.05;4.38;;;8.20;71.50;;;;;;9176286;19;20018;-61
2022/10/10 04:51:46;;;;;;;7.90;4.60;;;8.20;71.70;;;;;;9175008;19;20035;-64
2022/10/10 04:54:50;;;;;;;5.95;3.03;;;8.10;71.70;;;;;;9175185;19;20081;-60
2022/10/10 04:57:54;;;;;;;7.43;3.67;;;8.10;71.70;;;;;;9177360;19;20013;-60
2022/10/10 05:00:58;;;;;;;;;;;8.10;71.70;;;;;;9173151;19;20029;-63
2022/10/10 05:04:01;;;;;;;9.27;3.50;;;8.20;71.80;;;;;;9176181;19;19923;-63
2022/10/10 05:07:07;;;;;;;6.97;4.40;;;8.20;71.70;;;;;;9174705;19;20023;-62
2022/10/10 05:10:11;;;;;;;6.05;3.58;;;8.10;71.70;;;;;;9177355;19;20014;-62
2022/10/10 05:13:16;;;;;;;6.85;3.90;;;8.10;71.80;;;;;;9177140;19;20018;-63
2022/10/10 05:16:20;;;;;;;13.18;4.18;;;8.20;71.90;;;;;;9175266;19;20014;-62
2022/10/10 05:19:24;;;;;;;8.00;3.45;;;8.10;72.00;;;;;;9174838;19;20523;-62
2022/10/10 05:22:29;;;;;;;;;;;8.20;72.00;;;;;;9177056;19;20499;-62
2022/10/10 05:25:33;;;;;;;16.55;3.55;;;8.20;72.00;;;;;;9174532;19;19918;-60
2022/10/10 05:28:37;;;;;;;10.40;3.97;;;8.20;71.80;;;;;;9174611;19;20070;-61
2022/10/10 05:31:40;;;;;;;8.07;3.35;;;8.20;71.90;;;;;;9172939;19;20083;-60
2022/10/10 05:34:44;;;;;;;7.10;3.38;;;8.10;72.00;;;;;;9172301;19;20026;-62
2022/10/10 05:37:50;;;;;;;13.65;3.70;;;8.10;72.00;;;;;;9176475;19;20010;-61
2022/10/10 05:40:55;;;;;;;7.80;3.72;;;8.20;72.10;;;;;;9176442;19;20007;-61
2022/10/10 05:43:59;;;;;;;5.13;3.42;;;8.10;72.10;;;;;;9176866;19;20427;-61
2022/10/10 05:47:03;;;;;;;11.05;3.90;;;8.10;72.10;;;;;;9176691;19;20040;-62
2022/10/10 05:50:08;;;;;;;8.30;3.55;;;8.20;72.20;;;;;;9176057;19;20469;-63
2022/10/10 05:53:14;;;;;;;8.52;4.32;;;8.20;72.20;;;;;;9175923;19;20079;-63
2022/10/10 05:56:17;;;;;;;4.85;3.28;;;8.20;72.30;;;;;;9174013;19;20094;-60
2022/10/10 05:59:21;;;;;;;10.75;4.10;;;8.20;72.30;;;;;;9176942;19;20404;-62
2022/10/10 06:02:24;;;;;;;13.38;3.90;;;8.10;72.30;;;;;;9176053;19;20054;-62
2022/10/10 06:05:29;;;;;;;9.50;4.63;;;8.20;72.40;;;;;;9166140;19;20033;-62
2022/10/10 06:08:35;;;;;;;8.10;4.05;;;8.20;72.40;;;;;;9169572;19;20019;-61
2022/10/10 06:11:38;;;;;;;10.48;4.82;;;8.20;72.50;;;;;;9168989;19;20376;-61
2022/10/10 06:14:42;;;;;;;9.85;4.95;;;8.20;72.50;;;;;;9165591;19;20015;-61
2022/10/10 06:17:46;;;;;;;11.48;4.60;;;8.20;72.60;;;;;;9166516;19;20111;-61
2022/10/10 06:20:49;;;;;;;8.80;4.35;;;8.20;72.60;;;;;;9169506;19;20035;-61
2022/10/10 06:23:55;;;;;;;12.98;4.20;;;8.20;72.60;;;;;;9163826;19;20035;-63
2022/10/10 06:26:59;;;;;;;11.20;4.10;;;8.20;72.70;;;;;;9164697;19;20022;-63
2022/10/10 06:30:02;;;;;;;11.73;4.20;;;8.30;72.90;;;;;;9162550;19;20093;-60
2022/10/10 06:33:06;;;;;;;8.15;4.10;;;8.30;72.90;;;;;;9161490;19;20536;-63
2022/10/10 06:36:11;;;;;;;8.98;3.83;;;8.30;72.90;;;;;;9160380;19;20086;-63
2022/10/10 06:39:16;;;;;;;8.27;4.03;;;8.30;73.00;;;;;;9161908;19;20015;-62
2022/10/10 06:42:20;;;;;;;10.18;4.35;;;8.40;73.10;;;;;;9164380;19;20074;-62
2022/10/10 06:45:29;;;;;;;10.88;5.35;;;8.40;73.20;;;;;;9173959;19;20102;-63
2022/10/10 06:48:34;;;;;;;7.80;4.30;;;8.50;73.30;;;;;;9172598;19;20142;-61
2022/10/10 06:51:38;;;;;;;16.63;5.45;;;8.50;73.30;;;;;;9172518;19;20028;-61
2022/10/10 06:54:44;;;;;;;8.50;4.80;;;8.50;73.30;;;;;;9172043;19;20018;-61
2022/10/10 06:57:48;;;;;;;12.57;4.22;;;8.60;73.40;;;;;;9179035;19;20086;-60
2022/10/10 07:00:52;;;;;;;7.85;4.35;;;8.60;73.50;;;;;;9181753;19;20031;-63
2022/10/10 07:03:56;;;;;;;10.48;4.70;;;8.70;73.50;;;;;;9181700;19;20522;-63
2022/10/10 07:07:00;;;;;;;10.52;4.80;;;8.70;73.50;;;;;;9178185;19;20010;-62
2022/10/10 07:10:06;;;;;;;14.68;6.25;;;8.80;73.60;;;;;;9181504;19;20096;-61
2022/10/10 07:13:10;;;;;;;11.43;5.35;;;8.90;73.70;;;;;;9179804;19;20027;-62
2022/10/10 07:16:14;;;;;;;16.02;5.50;;;8.90;73.70;;;;;;9181482;19;20018;-62
2022/10/10 07:19:17;;;;;;;9.50;4.85;;;9.00;73.80;;;;;;9181526;19;20062;-62
2022/10/10 07:22:21;;;;;;;12.10;5.03;;;9.10;73.80;;;;;;9182031;19;20010;-62
2022/10/10 07:25:27;;;;;;;15.13;5.97;;;9.20;74.00;;;;;;9168948;19;20048;-62
2022/10/10 07:28:31;;;;;;;12.38;5.78;;;9.20;74.00;;;;;;9176763;19;20558;-62
2022/10/10 07:31:35;;;;;;;12.23;5.55;;;9.40;74.10;;;;;;9177250;19;20025;-61
2022/10/10 07:34:38;;;;;;;;;;;9.50;74.10;;;;;;9180849;19;20385;-63
2022/10/10 07:37:42;;;;;;;10.80;4.75;;;9.60;74.10;;;;;;9181046;19;19915;-59
2022/10/10 07:40:48;;;;;;;18.25;5.47;;;9.70;73.90;;;;;;9180915;19;20018;-65
2022/10/10 07:43:56;;;;;;;19.42;5.57;;;9.80;74.00;;;;;;9180915;19;20018;-63
2022/10/10 07:46:59;;;;;;;14.07;5.65;;;10.00;74.20;;;;;;9181208;19;20046;-61
2022/10/10 07:50:05;;;;;;;17.73;5.75;;;10.10;74.30;;;;;;9175628;19;20102;-60
2022/10/10 07:53:08;;;;;;;7.88;4.72;;;10.30;74.30;;;;;;9179735;19;20090;-60
2022/10/10 07:56:14;;;;;;;12.30;4.70;;;10.40;74.30;;;;;;9176685;19;20462;-65
2022/10/10 07:59:18;;;;;;;14.77;5.80;;;10.60;74.40;;;;;;9179642;19;20108;-62
2022/10/10 08:02:21;;;;;;;9.93;4.55;;;10.70;74.40;;;;;;9180641;19;20090;-60
2022/10/10 08:05:25;;;;;;;10.23;4.30;;;10.90;74.40;;;;;;9170730;19;20086;-61
2022/10/10 08:08:29;;;;;;;16.33;6.82;;;11.10;74.40;;;;;;9176491;19;20040;-62
2022/10/10 08:11:34;;;;;;;12.63;5.22;;;11.20;74.30;;;;;;9171813;19;20428;-63
2022/10/10 08:14:38;;;;;;;17.92;4.88;;;11.40;74.40;;;;;;9170991;19;20019;-61
2022/10/10 08:17:42;;;;;;;15.18;5.07;;;11.60;74.40;;;;;;9173492;19;20061;-62
2022/10/10 08:20:45;;;;;;;8.55;4.03;;;11.80;74.40;;;;;;9171595;19;20437;-63
2022/10/10 08:23:49;;;;;;;10.18;4.15;;;12.00;74.70;;;;;;9168876;19;20097;-62
2022/10/10 08:26:55;;;;;;;;;;;12.20;74.30;;;;;;9173536;19;20015;-60
2022/10/10 08:29:58;;;;;;;10.00;4.85;;;12.40;74.20;;;;;;9171229;19;20495;-61
2022/10/10 08:33:02;;;;;;;11.65;4.72;;;12.50;73.90;;;;;;9171958;19;20033;-60
2022/10/10 08:36:07;;;;;;;16.08;5.05;;;12.70;73.90;;;;;;9172677;19;20463;-61
2022/10/10 08:39:10;;;;;;;7.90;4.15;;;12.80;73.80;;;;;;9173069;19;20018;-64
2022/10/10 08:42:23;;;;;;;12.52;4.75;;;13.00;73.80;;;;;;9174534;19;20517;-63
2022/10/10 08:45:29;;;;;;;7.97;4.22;;;13.10;73.80;;;;;;9170366;19;20093;-61
2022/10/10 08:48:33;;;;;;;9.30;4.68;;;13.20;73.80;;;;;;9174956;19;20022;-66
2022/10/10 08:51:38;;;;;;;12.48;4.63;;;13.30;73.70;;;;;;9176122;19;20026;-62
2022/10/10 08:54:43;;;;;;;11.02;4.88;;;13.40;73.70;;;;;;9174829;19;20014;-62
2022/10/10 08:57:53;;;;;;;10.43;4.43;;;13.50;73.60;;;;;;9177950;19;20458;-62
2022/10/10 09:01:06;;;;;;;6.78;3.83;;;13.70;73.60;;;;;;9178345;19;20639;-60
2022/10/10 09:04:17;;;;;;;11.98;4.13;;;13.80;73.60;;;;;;9177066;19;20017;-60
2022/10/10 09:07:30;;;;;;;10.07;4.00;;;13.90;73.60;;;;;;9174682;19;20119;-60
2022/10/10 09:10:43;;;;;;;12.05;4.97;;;14.10;73.50;;;;;;9177207;19;20019;-61
2022/10/10 09:13:58;;;;;;;12.98;4.00;;;14.20;73.40;;;;;;9177232;19;20018;-61
2022/10/10 09:17:13;;;;;;;10.20;4.25;;;14.40;73.40;;;;;;9177251;19;20014;-60
2022/10/10 09:20:27;;;;;;;9.65;3.88;;;14.50;73.30;;;;;;9177637;19;20078;-63
2022/10/10 09:23:37;;;;;;;18.38;4.93;;;14.70;73.20;;;;;;9172355;19;20015;-64
2022/10/10 09:26:46;;;;;;;9.00;3.80;;;14.90;73.10;;;;;;9177329;19;20018;-62
2022/10/10 09:29:58;;;;;;;8.40;3.65;;;15.00;73.00;;;;;;9168774;19;20010;-62
2022/10/10 09:33:09;;;;;;;15.15;4.28;;;15.20;72.90;;;;;;9176788;19;20408;-66
2022/10/10 09:36:18;;;;;;;9.68;3.80;;;15.30;72.80;;;;;;9170974;19;20050;-63
2022/10/10 09:39:28;;;;;;;8.45;4.15;;;15.50;72.70;;;;;;9175897;19;20018;-64
2022/10/10 09:42:36;;;;;;;14.45;3.92;;;15.60;72.60;;;;;;9172334;19;20018;-62
2022/10/10 09:45:48;;;;;;;6.93;3.78;;;15.70;72.40;;;;;;9176715;19;20014;-63
2022/10/10 09:48:52;;;;;;;12.27;3.78;;;15.80;72.30;;;;;;9175289;19;20103;-62
2022/10/10 09:51:56;;;;;;;19.27;4.32;;;15.90;72.20;;;;;;9175896;19;20117;-61
2022/10/10 09:55:02;;;;;;;14.45;4.18;;;16.00;72.20;;;;;;9174732;19;20056;-62
2022/10/10 09:58:16;;;;;;;7.32;4.68;;;16.20;72.10;;;;;;9176441;19;20025;-62
2022/10/10 10:01:27;;;;;;;10.07;3.70;;;16.30;72.00;;;;;;9174468;19;20007;-63
2022/10/10 10:04:33;;;;;;;15.90;4.13;;;16.40;71.90;;;;;;9172398;19;20014;-61
2022/10/10 10:07:48;;;;;;;7.55;3.80;;;16.40;71.80;;;;;;9174819;19;20566;-61
2022/10/10 10:10:56;;;;;;;9.73;3.88;;;16.60;71.70;;;;;;9175102;19;20018;-63
2022/10/10 10:14:01;;;;;;;5.90;3.92;;;16.60;71.70;;;;;;9175054;19;20021;-63
2022/10/10 10:17:12;;;;;;;10.38;4.07;;;16.70;71.50;;;;;;9178152;19;20370;-64
2022/10/10 10:20:35;;;;;;;10.00;4.78;;;16.90;71.50;;;;;;9183668;19;20356;-63
2022/10/10 10:23:43;;;;;;;15.88;4.45;;;17.00;71.40;;;;;;9176580;19;20033;-64
2022/10/10 10:26:49;;;;;;;6.38;3.95;;;17.10;71.30;;;;;;9183198;19;20475;-64
2022/10/10 10:29:54;;;;;;;12.55;3.83;;;17.30;71.20;;;;;;9183403;19;20011;-62
2022/10/10 10:33:06;;;;;;;12.38;4.30;;;17.40;71.10;;;;;;9181856;19;20077;-64
2022/10/10 10:36:26;;;;;;;13.27;3.78;;;17.50;70.90;;;;;;9172861;19;20138;-60
2022/10/10 10:39:42;;;;;;;12.05;3.90;;;17.60;70.80;;;;;;9172673;19;20597;-64
2022/10/10 10:43:06;;;;;;;8.15;3.85;;;17.70;70.70;;;;;;9176722;19;20056;-63
2022/10/10 10:46:15;;;;;;;9.57;4.95;;;17.80;70.50;;;;;;9176434;19;20734;-64
2022/10/10 10:49:23;;;;;;;10.27;3.78;;;17.80;70.50;;;;;;9174034;19;20014;-65
2022/10/10 10:52:49;;;;;;;11.27;4.55;;;17.90;70.30;;;;;;9174809;19;20010;-65
2022/10/10 10:55:59;;;;;;;9.60;4.25;;;18.00;70.20;;;;;;9177260;19;20090;-65
2022/10/10 10:59:28;;;;;;;13.52;3.83;;;18.10;70.20;;;;;;9171824;19;20080;-66
2022/10/10 11:03:11;;;;;;;5.25;3.85;;;18.20;69.90;;;;;;9178399;19;20014;-65
2022/10/10 11:06:52;;;;;;;9.05;4.00;;;18.20;70.00;;;;;;9176167;19;20089;-63
2022/10/10 11:10:24;;;;;;;10.15;3.88;;;18.30;69.80;;;;;;9181709;19;20471;-62
2022/10/10 11:13:33;;;;;;;10.63;3.95;;;18.30;69.80;;;;;;9180531;19;20566;-61
2022/10/10 11:16:44;;;;;;;7.90;3.83;;;18.30;69.60;;;;;;9178131;19;20014;-63
2022/10/10 11:19:57;;;;;;;8.02;4.25;;;18.30;69.50;;;;;;9179571;19;20014;-63
2022/10/10 11:23:06;;;;;;;10.35;4.22;;;18.30;69.40;;;;;;9176682;19;20014;-62
2022/10/10 11:26:18;;;;;;;11.38;4.22;;;18.40;69.40;;;;;;9180445;19;20652;-62
2022/10/10 11:29:26;;;;;;;10.95;4.30;;;18.40;69.40;;;;;;9179169;19;20045;-63
2022/10/10 11:32:36;;;;;;;11.15;3.95;;;18.40;69.30;;;;;;9181743;19;20018;-60
2022/10/10 11:35:47;;;;;;;9.88;4.15;;;18.40;69.30;;;;;;9178196;19;20052;-63
2022/10/10 11:38:57;;;;;;;10.65;3.83;;;18.40;69.20;;;;;;9180991;19;20487;-62
2022/10/10 11:42:08;;;;;;;8.98;3.58;;;18.40;69.10;;;;;;9178764;19;20051;-62
2022/10/10 11:45:20;;;;;;;9.25;3.97;;;18.40;69.10;;;;;;9166207;19;20022;-63
2022/10/10 11:48:32;;;;;;;10.60;4.13;;;18.40;69.00;;;;;;9172276;19;20015;-62
2022/10/10 11:51:45;;;;;;;8.20;3.88;;;18.40;68.90;;;;;;9173889;19;20029;-63
2022/10/10 11:54:56;;;;;;;8.68;3.90;;;18.40;68.90;;;;;;9171788;19;20024;-65
2022/10/10 11:58:26;;;;;;;11.05;4.43;;;18.40;68.90;;;;;;9170830;19;20025;-66
2022/10/10 12:01:32;;;;;;;7.93;4.30;;;18.30;68.80;;;;;;9171725;19;20118;-65
2022/10/10 12:04:37;;;;;;;7.35;3.47;;;18.30;69.00;;;;;;9169766;19;20026;-64
2022/10/10 12:07:47;;;;;;;10.13;4.65;;;18.40;69.00;;;;;;9169137;19;20897;-64
2022/10/10 12:10:58;;;;;;;8.90;4.03;;;18.40;69.00;;;;;;9168151;19;20021;-66
2022/10/10 12:14:04;;;;;;;10.70;5.07;;;18.40;68.90;;;;;;9168930;19;20027;-63
2022/10/10 12:17:21;;;;;;;9.63;4.03;;;18.40;69.00;;;;;;9169532;19;20011;-64
2022/10/10 12:20:34;;;;;;;8.80;4.00;;;18.40;68.80;;;;;;9170212;19;20019;-64
2022/10/10 12:23:39;;;;;;;8.65;3.47;;;18.40;68.80;;;;;;9166074;19;20018;-62
2022/10/10 12:27:26;;;;;;;10.60;3.97;;;18.40;68.90;;;;;;9174025;19;20090;-64
2022/10/10 12:30:30;;;;;;;7.68;3.30;;;18.40;68.80;;;;;;9168530;19;20018;-66
2022/10/10 12:33:48;;;;;;;;;;;18.40;68.90;;;;;;9169660;19;20117;-63
2022/10/10 12:37:12;;;;;;;12.00;3.97;;;18.40;68.90;;;;;;9166270;19;19922;-62
2022/10/10 12:40:24;;;;;;;8.43;3.53;;;18.40;68.80;;;;;;9169752;19;20047;-64
2022/10/10 12:43:43;;;;;;;7.93;3.45;;;18.40;68.70;;;;;;9170295;19;20081;-64
2022/10/10 12:46:48;;;;;;;13.77;3.78;;;18.40;68.70;;;;;;9169690;19;20014;-63
2022/10/10 12:49:54;;;;;;;9.15;3.38;;;18.40;68.80;;;;;;9170260;19;20025;-61
2022/10/10 12:53:00;;;;;;;8.63;4.10;;;18.40;68.70;;;;;;9171142;19;20014;-62
2022/10/10 12:56:04;;;;;;;9.90;3.28;;;18.40;68.70;;;;;;9165684;19;20138;-66
2022/10/10 12:59:19;;;;;;;9.93;3.88;;;18.40;68.70;;;;;;9172083;19;20535;-61
2022/10/10 13:02:26;;;;;;;7.53;3.92;;;18.40;68.60;;;;;;9169214;19;20022;-62
2022/10/10 13:05:33;;;;;;;13.48;4.72;;;18.40;68.70;;;;;;9166446;19;20380;-65
2022/10/10 13:08:38;;;;;;;9.77;3.92;;;18.40;68.70;;;;;;9169359;19;20026;-62
2022/10/10 13:11:52;;;;;;;10.85;3.72;;;18.40;68.80;;;;;;9170415;19;20463;-64
2022/10/10 13:15:00;;;;;;;12.23;4.05;;;18.40;68.70;;;;;;9166307;19;20018;-63
2022/10/10 13:18:04;;;;;;;9.55;4.32;;;18.40;68.70;;;;;;9169251;19;20022;-64
2022/10/10 13:21:10;;;;;;;14.90;3.60;;;18.40;68.70;;;;;;9170929;19;20051;-63
2022/10/10 13:24:17;;;;;;;15.23;3.95;;;18.30;68.80;;;;;;9162879;19;20024;-65
2022/10/10 13:27:24;;;;;;;10.15;3.53;;;18.30;68.70;;;;;;9163122;19;20086;-64
2022/10/10 13:30:30;;;;;;;13.38;4.38;;;18.30;68.80;;;;;;9166516;19;20015;-62
2022/10/10 13:33:35;;;;;;;17.80;4.15;;;18.30;68.80;;;;;;9167673;19;20018;-63
2022/10/10 13:36:39;;;;;;;12.80;4.18;;;18.30;69.60;;;;;;9166119;19;20099;-63
2022/10/10 13:39:43;;;;;;;13.23;4.85;;;18.20;68.90;;;;;;9167597;19;20018;-62
2022/10/10 13:42:48;;;;;;;6.78;3.60;;;18.20;69.00;;;;;;9164224;19;20029;-60
2022/10/10 13:45:59;;;;;;;13.57;3.83;;;18.20;69.20;;;;;;9169787;19;20096;-62
2022/10/10 13:49:13;;;;;;;11.93;3.65;;;18.10;69.30;;;;;;9165831;19;20022;-64
2022/10/10 13:52:21;;;;;;;;;;;18.00;69.40;;;;;;9173313;19;20529;-60
2022/10/10 13:55:28;;;;;;;13.88;5.15;;;18.00;69.60;;;;;;9176386;19;20412;-62
2022/10/10 13:58:34;;;;;;;9.35;4.70;;;18.00;69.60;;;;;;9174277;19;20111;-62
2022/10/10 14:01:42;;;;;;;12.73;4.60;;;17.90;69.80;;;;;;9175594;19;20070;-61
2022/10/10 14:04:50;;;;;;;9.90;4.75;;;17.90;70.00;;;;;;9172837;19;20483;-63
2022/10/10 14:07:54;;;;;;;10.88;4.30;;;17.80;70.10;;;;;;9175453;19;20055;-62
2022/10/10 14:11:01;;;;;;;16.63;5.47;;;17.70;70.20;;;;;;9175685;19;20026;-62
2022/10/10 14:14:09;;;;;;;13.32;4.85;;;17.70;70.40;;;;;;9172896;19;21550;-62
2022/10/10 14:17:15;;;;;;;12.65;4.53;;;17.70;70.50;;;;;;9169928;19;20487;-62
2022/10/10 14:20:19;;;;;;;6.85;4.85;;;17.60;70.60;;;;;;9176186;19;20043;-61
2022/10/10 14:23:23;;;;;;;11.82;4.80;;;17.50;70.60;;;;;;9167371;19;20018;-63
2022/10/10 14:26:26;;;;;;;;;;;17.50;70.90;;;;;;9176269;19;20018;-62
2022/10/10 14:29:30;;;;;;;9.38;4.00;;;17.40;70.80;;;;;;9173926;19;19927;-62
2022/10/10 14:32:36;;;;;;;;;;;17.40;70.90;;;;;;9176304;19;20019;-64
2022/10/10 14:35:40;;;;;;;13.02;5.50;;;17.30;70.90;;;;;;9175087;19;19931;-63
2022/10/10 14:38:43;;;;;;;;;;;17.30;70.90;;;;;;9173382;19;20011;-64
2022/10/10 14:41:47;;;;;;;8.70;4.97;;;17.20;71.00;;;;;;9175107;19;20594;-65
2022/10/10 14:44:50;;;;;;;;;;;17.10;71.00;;;;;;9176892;19;20033;-66
2022/10/10 14:47:56;;;;;;;12.98;5.50;;;17.10;71.10;;;;;;9173957;19;19918;-64
2022/10/10 14:51:00;;;;;;;14.55;5.85;;;17.10;71.30;;;;;;9173356;19;20380;-64
2022/10/10 14:54:23;;;;;;;13.13;5.60;;;17.00;71.40;;;;;;9169047;19;20025;-64
2022/10/10 14:57:27;;;;;;;14.05;5.22;;;17.00;71.60;;;;;;9171934;19;20883;-63
2022/10/10 15:00:31;;;;;;;18.15;5.95;;;16.90;71.70;;;;;;9172570;19;20048;-63
2022/10/10 15:03:36;;;;;;;;;;;16.90;71.90;;;;;;9170909;19;20141;-62
2022/10/10 15:06:40;;;;;;;4.22;2.05;;;16.80;71.80;;;;;;9166427;19;20348;-62
2022/10/10 15:10:04;;;;;;;2.20;1.40;;;16.70;71.70;;;;;;9173477;19;20014;-62
2022/10/10 15:13:28;;;;;;;1.40;0.63;;;16.60;71.80;;;;;;9171037;19;20552;-63
2022/10/10 15:16:32;;;;;;;2.35;0.95;;;16.50;71.90;;;;;;9171103;19;20014;-68
2022/10/10 15:19:38;;;;;;;1.90;0.95;;;16.40;72.60;;;;;;9168718;19;20030;-64
2022/10/10 15:22:42;;;;;;;2.35;1.02;;;16.30;72.20;;;;;;9170989;19;20014;-63
2022/10/10 15:25:46;;;;;;;6.25;2.30;;;16.20;72.20;;;;;;9172988;19;20529;-64
2022/10/10 15:28:49;;;;;;;1.73;0.82;;;16.00;72.30;;;;;;9174007;19;20021;-65
2022/10/10 15:31:54;;;;;;;7.57;1.10;;;15.90;72.50;;;;;;9170527;19;20481;-63
2022/10/10 15:34:59;;;;;;;;;;;15.80;72.50;;;;;;9170216;19;20668;-64
2022/10/10 15:38:03;;;;;;;9.30;1.30;;;15.60;72.40;;;;;;9168172;19;20400;-65
2022/10/10 15:41:09;;;;;;;5.00;0.80;;;15.60;72.50;;;;;;9168146;19;20086;-62
2022/10/10 15:44:15;;;;;;;11.63;1.58;;;15.50;72.60;;;;;;9169811;19;20657;-65
2022/10/10 15:47:19;;;;;;;5.78;1.40;;;15.40;72.70;;;;;;9175772;19;20645;-64
2022/10/10 15:50:25;;;;;;;10.10;2.60;;;15.30;72.80;;;;;;9172757;19;20015;-62
2022/10/10 15:53:50;;;;;;;4.07;1.30;;;15.20;72.80;;;;;;9173851;19;20007;-63
2022/10/10 15:56:54;;;;;;;10.30;1.83;;;15.20;73.00;;;;;;9169955;19;20018;-63
2022/10/10 15:59:58;;;;;;;5.93;1.50;;;15.10;73.00;;;;;;9175737;19;20098;-64
2022/10/10 16:03:02;;;;;;;7.72;1.55;;;15.10;73.00;;;;;;9178703;19;20516;-63
2022/10/10 16:06:08;;;;;;;20.42;3.20;;;15.00;73.00;;;;;;9171762;19;20037;-63
2022/10/10 16:09:12;;;;;;;12.45;2.30;;;15.00;73.10;;;;;;9173903;19;20018;-62
2022/10/10 16:12:31;;;;;;;13.27;2.28;;;15.00;73.20;;;;;;9173902;19;20018;-63
2022/10/10 16:15:35;;;;;;;16.63;2.70;;;14.90;73.20;;;;;;9169816;19;20015;-62
2022/10/10 16:18:41;;;;;;;6.38;1.90;;;14.90;73.30;;;;;;9169847;19;20461;-63
2022/10/10 16:21:47;;;;;;;12.93;2.15;;;14.80;73.30;;;;;;9170678;19;20038;-63